sensor_id;sensor_type;location;lat;lon;timestamp;P1;durP1;ratioP1;P2;durP2;ratioP2
20423;SDS011;10371;49.042;8.002;2022-12-18T00:00:41;47.00;;;34.17;;
20423;SDS011;10371;49.042;8.002;2022-12-18T00:01:42;46.65;;;32.22;;
20423;SDS011;10371;49.042;8.002;2022-12-18T00:02:42;48.87;;;34.13;;
20423;SDS011;10371;49.042;8.002;2022-12-18T00:03:43;46.90;;;33.93;;
20423;SDS011;10371;49.042;8.002;2022-12-18T00:04:43;49.53;;;34.03;;
20423;SDS011;10371;49.042;8.002;2022-12-18T00:05:50;46.17;;;32.80;;
20423;SDS011;10371;49.042;8.002;2022-12-18T00:06:52;50.03;;;33.58;;
20423;SDS011;10371;49.042;8.002;2022-12-18T00:07:52;48.87;;;34.97;;
20423;SDS011;10371;49.042;8.002;2022-12-18T00:08:53;48.37;;;33.43;;
20423;SDS011;10371;49.042;8.002;2022-12-18T00:09:55;45.20;;;32.63;;
20423;SDS011;10371;49.042;8.002;2022-12-18T00:10:56;47.70;;;34.57;;
20423;SDS011;10371;49.042;8.002;2022-12-18T00:12:04;48.63;;;33.55;;
20423;SDS011;10371;49.042;8.002;2022-12-18T00:13:04;51.30;;;34.53;;
20423;SDS011;10371;49.042;8.002;2022-12-18T00:14:04;50.00;;;35.03;;
20423;SDS011;10371;49.042;8.002;2022-12-18T00:15:05;49.43;;;34.30;;
20423;SDS011;10371;49.042;8.002;2022-12-18T00:16:10;53.30;;;35.13;;
20423;SDS011;10371;49.042;8.002;2022-12-18T00:17:12;50.28;;;35.15;;
20423;SDS011;10371;49.042;8.002;2022-12-18T00:18:12;50.73;;;34.83;;
20423;SDS011;10371;49.042;8.002;2022-12-18T00:19:13;49.70;;;35.97;;
20423;SDS011;10371;49.042;8.002;2022-12-18T00:20:14;49.28;;;35.45;;
20423;SDS011;10371;49.042;8.002;2022-12-18T00:21:14;51.30;;;35.03;;
20423;SDS011;10371;49.042;8.002;2022-12-18T00:22:15;51.77;;;35.60;;
20423;SDS011;10371;49.042;8.002;2022-12-18T00:23:15;49.90;;;35.97;;
20423;SDS011;10371;49.042;8.002;2022-12-18T00:24:15;51.23;;;35.17;;
20423;SDS011;10371;49.042;8.002;2022-12-18T00:25:15;50.43;;;36.07;;
20423;SDS011;10371;49.042;8.002;2022-12-18T00:26:17;49.17;;;34.77;;
20423;SDS011;10371;49.042;8.002;2022-12-18T00:27:19;55.63;;;36.95;;
20423;SDS011;10371;49.042;8.002;2022-12-18T00:28:19;53.87;;;36.80;;
20423;SDS011;10371;49.042;8.002;2022-12-18T00:29:20;53.33;;;37.83;;
20423;SDS011;10371;49.042;8.002;2022-12-18T00:30:20;51.13;;;35.90;;
20423;SDS011;10371;49.042;8.002;2022-12-18T00:31:21;53.90;;;37.60;;
20423;SDS011;10371;49.042;8.002;2022-12-18T00:32:23;51.80;;;36.00;;
20423;SDS011;10371;49.042;8.002;2022-12-18T00:33:24;52.10;;;37.00;;
20423;SDS011;10371;49.042;8.002;2022-12-18T00:34:24;51.70;;;35.70;;
20423;SDS011;10371;49.042;8.002;2022-12-18T00:35:24;52.47;;;36.53;;
20423;SDS011;10371;49.042;8.002;2022-12-18T00:36:26;52.07;;;36.00;;
20423;SDS011;10371;49.042;8.002;2022-12-18T00:37:28;48.45;;;35.78;;
20423;SDS011;10371;49.042;8.002;2022-12-18T00:38:28;50.67;;;34.97;;
20423;SDS011;10371;49.042;8.002;2022-12-18T00:39:29;46.90;;;34.30;;
20423;SDS011;10371;49.042;8.002;2022-12-18T00:40:29;51.77;;;35.83;;
20423;SDS011;10371;49.042;8.002;2022-12-18T00:41:29;49.70;;;34.30;;
20423;SDS011;10371;49.042;8.002;2022-12-18T00:42:48;52.08;;;35.63;;
20423;SDS011;10371;49.042;8.002;2022-12-18T00:43:57;52.72;;;36.13;;
20423;SDS011;10371;49.042;8.002;2022-12-18T00:44:58;51.27;;;36.50;;
20423;SDS011;10371;49.042;8.002;2022-12-18T00:45:58;48.57;;;34.93;;
20423;SDS011;10371;49.042;8.002;2022-12-18T00:46:58;48.93;;;35.43;;
20423;SDS011;10371;49.042;8.002;2022-12-18T00:47:58;48.27;;;34.50;;
20423;SDS011;10371;49.042;8.002;2022-12-18T00:48:59;54.57;;;36.97;;
20423;SDS011;10371;49.042;8.002;2022-12-18T00:49:59;53.80;;;35.70;;
20423;SDS011;10371;49.042;8.002;2022-12-18T00:50:59;49.13;;;34.67;;
20423;SDS011;10371;49.042;8.002;2022-12-18T00:51:59;48.73;;;35.30;;
20423;SDS011;10371;49.042;8.002;2022-12-18T00:53:00;49.53;;;35.43;;
20423;SDS011;10371;49.042;8.002;2022-12-18T00:54:00;52.43;;;36.17;;
20423;SDS011;10371;49.042;8.002;2022-12-18T00:55:01;50.00;;;34.10;;
20423;SDS011;10371;49.042;8.002;2022-12-18T00:56:01;50.30;;;35.77;;
20423;SDS011;10371;49.042;8.002;2022-12-18T00:57:01;52.23;;;35.63;;
20423;SDS011;10371;49.042;8.002;2022-12-18T00:58:02;53.83;;;36.40;;
20423;SDS011;10371;49.042;8.002;2022-12-18T00:59:02;49.97;;;37.07;;
20423;SDS011;10371;49.042;8.002;2022-12-18T01:00:04;53.93;;;36.40;;
20423;SDS011;10371;49.042;8.002;2022-12-18T01:01:05;55.58;;;37.40;;
20423;SDS011;10371;49.042;8.002;2022-12-18T01:02:06;55.75;;;37.28;;
20423;SDS011;10371;49.042;8.002;2022-12-18T01:03:07;56.13;;;36.93;;
20423;SDS011;10371;49.042;8.002;2022-12-18T01:04:07;53.80;;;36.63;;
20423;SDS011;10371;49.042;8.002;2022-12-18T01:05:08;54.60;;;36.23;;
20423;SDS011;10371;49.042;8.002;2022-12-18T01:06:10;52.33;;;36.63;;
20423;SDS011;10371;49.042;8.002;2022-12-18T01:07:12;54.20;;;37.58;;
20423;SDS011;10371;49.042;8.002;2022-12-18T01:08:12;61.57;;;37.13;;
20423;SDS011;10371;49.042;8.002;2022-12-18T01:09:12;56.23;;;37.33;;
20423;SDS011;10371;49.042;8.002;2022-12-18T01:10:13;50.30;;;35.43;;
20423;SDS011;10371;49.042;8.002;2022-12-18T01:11:15;57.83;;;37.23;;
20423;SDS011;10371;49.042;8.002;2022-12-18T01:12:17;53.45;;;36.17;;
20423;SDS011;10371;49.042;8.002;2022-12-18T01:13:17;51.90;;;35.43;;
20423;SDS011;10371;49.042;8.002;2022-12-18T01:14:17;52.87;;;36.53;;
20423;SDS011;10371;49.042;8.002;2022-12-18T01:15:18;52.13;;;37.33;;
20423;SDS011;10371;49.042;8.002;2022-12-18T01:16:18;52.37;;;35.13;;
20423;SDS011;10371;49.042;8.002;2022-12-18T01:17:19;52.35;;;35.28;;
20423;SDS011;10371;49.042;8.002;2022-12-18T01:18:19;55.50;;;36.50;;
20423;SDS011;10371;49.042;8.002;2022-12-18T01:19:20;52.77;;;36.17;;
20423;SDS011;10371;49.042;8.002;2022-12-18T01:20:20;53.57;;;37.60;;
20423;SDS011;10371;49.042;8.002;2022-12-18T01:21:20;54.47;;;36.90;;
20423;SDS011;10371;49.042;8.002;2022-12-18T01:22:22;54.38;;;35.83;;
20423;SDS011;10371;49.042;8.002;2022-12-18T01:23:22;50.07;;;35.57;;
20423;SDS011;10371;49.042;8.002;2022-12-18T01:24:22;51.67;;;36.17;;
20423;SDS011;10371;49.042;8.002;2022-12-18T01:25:23;55.67;;;36.73;;
20423;SDS011;10371;49.042;8.002;2022-12-18T01:26:24;57.27;;;36.97;;
20423;SDS011;10371;49.042;8.002;2022-12-18T01:27:25;53.38;;;36.40;;
20423;SDS011;10371;49.042;8.002;2022-12-18T01:28:25;58.37;;;39.20;;
20423;SDS011;10371;49.042;8.002;2022-12-18T01:29:25;58.73;;;37.00;;
20423;SDS011;10371;49.042;8.002;2022-12-18T01:30:25;55.37;;;37.73;;
20423;SDS011;10371;49.042;8.002;2022-12-18T01:31:27;54.90;;;36.47;;
20423;SDS011;10371;49.042;8.002;2022-12-18T01:32:30;56.45;;;38.20;;
20423;SDS011;10371;49.042;8.002;2022-12-18T01:33:31;52.95;;;37.03;;
20423;SDS011;10371;49.042;8.002;2022-12-18T01:34:31;55.30;;;37.50;;
20423;SDS011;10371;49.042;8.002;2022-12-18T01:35:31;56.27;;;37.50;;
20423;SDS011;10371;49.042;8.002;2022-12-18T01:36:33;54.43;;;36.80;;
20423;SDS011;10371;49.042;8.002;2022-12-18T01:37:36;56.53;;;37.33;;
20423;SDS011;10371;49.042;8.002;2022-12-18T01:38:36;53.67;;;36.33;;
20423;SDS011;10371;49.042;8.002;2022-12-18T01:39:36;55.27;;;36.77;;
20423;SDS011;10371;49.042;8.002;2022-12-18T01:40:36;55.00;;;36.47;;
20423;SDS011;10371;49.042;8.002;2022-12-18T01:41:37;56.93;;;37.53;;
20423;SDS011;10371;49.042;8.002;2022-12-18T01:42:57;57.33;;;37.30;;
20423;SDS011;10371;49.042;8.002;2022-12-18T01:43:57;56.73;;;36.37;;
20423;SDS011;10371;49.042;8.002;2022-12-18T01:46:14;54.70;;;36.38;;
20423;SDS011;10371;49.042;8.002;2022-12-18T01:47:57;54.88;;;38.33;;
20423;SDS011;10371;49.042;8.002;2022-12-18T01:48:50;55.53;;;36.63;;
20423;SDS011;10371;49.042;8.002;2022-12-18T01:49:54;53.58;;;37.15;;
20423;SDS011;10371;49.042;8.002;2022-12-18T01:50:56;53.28;;;37.10;;
20423;SDS011;10371;49.042;8.002;2022-12-18T01:51:57;56.10;;;37.40;;
20423;SDS011;10371;49.042;8.002;2022-12-18T01:54:14;55.83;;;37.13;;
20423;SDS011;10371;49.042;8.002;2022-12-18T01:55:16;62.17;;;37.17;;
20423;SDS011;10371;49.042;8.002;2022-12-18T01:56:19;59.13;;;38.17;;
20423;SDS011;10371;49.042;8.002;2022-12-18T01:57:21;56.35;;;37.58;;
20423;SDS011;10371;49.042;8.002;2022-12-18T01:58:24;60.60;;;39.75;;
20423;SDS011;10371;49.042;8.002;2022-12-18T01:59:32;56.63;;;36.60;;
20423;SDS011;10371;49.042;8.002;2022-12-18T02:00:35;58.85;;;36.42;;
20423;SDS011;10371;49.042;8.002;2022-12-18T02:01:35;61.07;;;38.97;;
20423;SDS011;10371;49.042;8.002;2022-12-18T02:02:37;59.67;;;38.38;;
20423;SDS011;10371;49.042;8.002;2022-12-18T02:03:43;55.75;;;38.03;;
20423;SDS011;10371;49.042;8.002;2022-12-18T02:04:44;59.30;;;38.65;;
20423;SDS011;10371;49.042;8.002;2022-12-18T02:06:07;53.87;;;38.07;;
20423;SDS011;10371;49.042;8.002;2022-12-18T02:08:23;56.65;;;37.58;;
20423;SDS011;10371;49.042;8.002;2022-12-18T02:09:41;58.70;;;37.90;;
20423;SDS011;10371;49.042;8.002;2022-12-18T02:12:13;56.28;;;37.58;;
20423;SDS011;10371;49.042;8.002;2022-12-18T02:13:20;59.72;;;37.92;;
20423;SDS011;10371;49.042;8.002;2022-12-18T02:14:44;59.63;;;38.78;;
20423;SDS011;10371;49.042;8.002;2022-12-18T02:17:52;56.63;;;36.90;;
20423;SDS011;10371;49.042;8.002;2022-12-18T02:18:59;56.80;;;37.67;;
20423;SDS011;10371;49.042;8.002;2022-12-18T02:26:00;58.13;;;37.90;;
20423;SDS011;10371;49.042;8.002;2022-12-18T02:27:07;63.00;;;38.55;;
20423;SDS011;10371;49.042;8.002;2022-12-18T02:28:10;58.78;;;38.63;;
20423;SDS011;10371;49.042;8.002;2022-12-18T02:29:17;54.60;;;37.95;;
20423;SDS011;10371;49.042;8.002;2022-12-18T02:30:22;57.75;;;37.03;;
20423;SDS011;10371;49.042;8.002;2022-12-18T02:31:27;55.50;;;38.07;;
20423;SDS011;10371;49.042;8.002;2022-12-18T02:32:31;63.42;;;39.28;;
20423;SDS011;10371;49.042;8.002;2022-12-18T02:33:36;55.22;;;37.38;;
20423;SDS011;10371;49.042;8.002;2022-12-18T02:34:40;55.72;;;38.65;;
20423;SDS011;10371;49.042;8.002;2022-12-18T02:35:40;59.97;;;38.67;;
20423;SDS011;10371;49.042;8.002;2022-12-18T02:36:42;57.80;;;37.63;;
20423;SDS011;10371;49.042;8.002;2022-12-18T02:37:45;54.58;;;37.30;;
20423;SDS011;10371;49.042;8.002;2022-12-18T02:38:47;54.63;;;37.25;;
20423;SDS011;10371;49.042;8.002;2022-12-18T02:39:49;54.90;;;37.00;;
20423;SDS011;10371;49.042;8.002;2022-12-18T02:40:52;56.05;;;37.40;;
20423;SDS011;10371;49.042;8.002;2022-12-18T02:41:53;56.85;;;37.20;;
20423;SDS011;10371;49.042;8.002;2022-12-18T02:42:54;51.90;;;36.63;;
20423;SDS011;10371;49.042;8.002;2022-12-18T02:43:57;51.80;;;35.83;;
20423;SDS011;10371;49.042;8.002;2022-12-18T02:45:01;54.45;;;36.35;;
20423;SDS011;10371;49.042;8.002;2022-12-18T02:46:21;51.77;;;35.43;;
20423;SDS011;10371;49.042;8.002;2022-12-18T02:47:28;52.03;;;36.28;;
20423;SDS011;10371;49.042;8.002;2022-12-18T02:48:33;55.03;;;36.33;;
20423;SDS011;10371;49.042;8.002;2022-12-18T02:51:19;51.00;;;35.72;;
20423;SDS011;10371;49.042;8.002;2022-12-18T02:53:52;52.28;;;36.42;;
20423;SDS011;10371;49.042;8.002;2022-12-18T02:56:38;52.10;;;34.22;;
20423;SDS011;10371;49.042;8.002;2022-12-18T02:59:34;49.92;;;34.38;;
20423;SDS011;10371;49.042;8.002;2022-12-18T03:00:52;54.20;;;35.65;;
20423;SDS011;10371;49.042;8.002;2022-12-18T03:01:59;52.67;;;36.80;;
20423;SDS011;10371;49.042;8.002;2022-12-18T03:03:11;54.13;;;36.22;;
20423;SDS011;10371;49.042;8.002;2022-12-18T03:04:24;51.83;;;35.03;;
20423;SDS011;10371;49.042;8.002;2022-12-18T03:05:38;50.83;;;35.03;;
20423;SDS011;10371;49.042;8.002;2022-12-18T03:06:44;54.67;;;36.53;;
20423;SDS011;10371;49.042;8.002;2022-12-18T03:09:44;54.72;;;36.58;;
20423;SDS011;10371;49.042;8.002;2022-12-18T03:10:49;53.90;;;35.92;;
20423;SDS011;10371;49.042;8.002;2022-12-18T03:11:55;52.10;;;34.63;;
20423;SDS011;10371;49.042;8.002;2022-12-18T03:13:23;52.95;;;36.47;;
20423;SDS011;10371;49.042;8.002;2022-12-18T03:14:29;50.40;;;36.38;;
20423;SDS011;10371;49.042;8.002;2022-12-18T03:15:37;55.88;;;38.10;;
20423;SDS011;10371;49.042;8.002;2022-12-18T03:16:42;56.00;;;37.28;;
20423;SDS011;10371;49.042;8.002;2022-12-18T03:17:46;54.97;;;37.42;;
20423;SDS011;10371;49.042;8.002;2022-12-18T03:19:11;56.38;;;37.30;;
20423;SDS011;10371;49.042;8.002;2022-12-18T03:20:19;54.80;;;37.78;;
20423;SDS011;10371;49.042;8.002;2022-12-18T03:21:22;55.05;;;37.22;;
20423;SDS011;10371;49.042;8.002;2022-12-18T03:22:28;51.75;;;35.75;;
20423;SDS011;10371;49.042;8.002;2022-12-18T03:23:36;54.05;;;37.58;;
20423;SDS011;10371;49.042;8.002;2022-12-18T03:24:42;51.78;;;36.08;;
20423;SDS011;10371;49.042;8.002;2022-12-18T03:25:45;55.78;;;38.10;;
20423;SDS011;10371;49.042;8.002;2022-12-18T03:26:50;55.38;;;37.90;;
20423;SDS011;10371;49.042;8.002;2022-12-18T03:27:55;53.42;;;38.10;;
20423;SDS011;10371;49.042;8.002;2022-12-18T03:28:59;56.22;;;36.38;;
20423;SDS011;10371;49.042;8.002;2022-12-18T03:30:07;53.42;;;36.60;;
20423;SDS011;10371;49.042;8.002;2022-12-18T03:31:11;57.35;;;37.80;;
20423;SDS011;10371;49.042;8.002;2022-12-18T03:32:24;53.75;;;36.80;;
20423;SDS011;10371;49.042;8.002;2022-12-18T03:33:30;54.85;;;36.47;;
20423;SDS011;10371;49.042;8.002;2022-12-18T03:34:38;52.65;;;36.70;;
20423;SDS011;10371;49.042;8.002;2022-12-18T03:35:41;56.20;;;37.63;;
20423;SDS011;10371;49.042;8.002;2022-12-18T03:36:42;54.90;;;36.60;;
20423;SDS011;10371;49.042;8.002;2022-12-18T03:37:43;52.80;;;37.87;;
20423;SDS011;10371;49.042;8.002;2022-12-18T03:38:43;48.83;;;35.80;;
20423;SDS011;10371;49.042;8.002;2022-12-18T03:39:44;50.77;;;36.53;;
20423;SDS011;10371;49.042;8.002;2022-12-18T03:40:48;53.20;;;36.77;;
20423;SDS011;10371;49.042;8.002;2022-12-18T03:43:08;53.70;;;36.75;;
20423;SDS011;10371;49.042;8.002;2022-12-18T03:44:13;53.58;;;37.50;;
20423;SDS011;10371;49.042;8.002;2022-12-18T03:45:22;52.13;;;36.17;;
20423;SDS011;10371;49.042;8.002;2022-12-18T03:46:28;53.55;;;36.83;;
20423;SDS011;10371;49.042;8.002;2022-12-18T03:47:35;54.55;;;37.83;;
20423;SDS011;10371;49.042;8.002;2022-12-18T03:48:43;53.13;;;35.88;;
20423;SDS011;10371;49.042;8.002;2022-12-18T03:49:52;55.40;;;37.80;;
20423;SDS011;10371;49.042;8.002;2022-12-18T03:51:27;52.67;;;35.78;;
20423;SDS011;10371;49.042;8.002;2022-12-18T03:52:38;51.13;;;35.15;;
20423;SDS011;10371;49.042;8.002;2022-12-18T03:53:47;53.88;;;36.13;;
20423;SDS011;10371;49.042;8.002;2022-12-18T03:54:54;49.40;;;35.67;;
20423;SDS011;10371;49.042;8.002;2022-12-18T03:55:58;53.67;;;36.45;;
20423;SDS011;10371;49.042;8.002;2022-12-18T03:57:04;52.55;;;36.72;;
20423;SDS011;10371;49.042;8.002;2022-12-18T03:58:11;52.97;;;36.33;;
20423;SDS011;10371;49.042;8.002;2022-12-18T03:59:16;54.75;;;37.17;;
20423;SDS011;10371;49.042;8.002;2022-12-18T04:00:19;54.55;;;37.33;;
20423;SDS011;10371;49.042;8.002;2022-12-18T04:01:20;52.63;;;36.10;;
20423;SDS011;10371;49.042;8.002;2022-12-18T04:02:23;50.65;;;36.80;;
20423;SDS011;10371;49.042;8.002;2022-12-18T04:03:25;51.45;;;36.47;;
20423;SDS011;10371;49.042;8.002;2022-12-18T04:04:27;48.92;;;35.10;;
20423;SDS011;10371;49.042;8.002;2022-12-18T04:05:28;51.72;;;36.15;;
20423;SDS011;10371;49.042;8.002;2022-12-18T04:06:31;48.90;;;36.30;;
20423;SDS011;10371;49.042;8.002;2022-12-18T04:07:32;48.58;;;34.72;;
20423;SDS011;10371;49.042;8.002;2022-12-18T04:08:33;48.73;;;35.70;;
20423;SDS011;10371;49.042;8.002;2022-12-18T04:09:34;51.33;;;36.65;;
20423;SDS011;10371;49.042;8.002;2022-12-18T04:10:36;48.95;;;35.47;;
20423;SDS011;10371;49.042;8.002;2022-12-18T04:11:37;48.87;;;35.97;;
20423;SDS011;10371;49.042;8.002;2022-12-18T04:12:37;51.10;;;35.10;;
20423;SDS011;10371;49.042;8.002;2022-12-18T04:13:38;51.47;;;36.40;;
20423;SDS011;10371;49.042;8.002;2022-12-18T04:14:39;49.58;;;34.60;;
20423;SDS011;10371;49.042;8.002;2022-12-18T04:15:39;47.73;;;35.17;;
20423;SDS011;10371;49.042;8.002;2022-12-18T04:16:40;49.57;;;35.20;;
20423;SDS011;10371;49.042;8.002;2022-12-18T04:17:43;50.53;;;35.80;;
20423;SDS011;10371;49.042;8.002;2022-12-18T04:18:47;50.80;;;34.50;;
20423;SDS011;10371;49.042;8.002;2022-12-18T04:19:48;52.80;;;36.10;;
20423;SDS011;10371;49.042;8.002;2022-12-18T04:20:48;52.10;;;36.23;;
20423;SDS011;10371;49.042;8.002;2022-12-18T04:21:48;47.57;;;34.47;;
20423;SDS011;10371;49.042;8.002;2022-12-18T04:22:48;55.93;;;36.97;;
20423;SDS011;10371;49.042;8.002;2022-12-18T04:23:49;48.73;;;35.77;;
20423;SDS011;10371;49.042;8.002;2022-12-18T04:24:49;49.57;;;35.97;;
20423;SDS011;10371;49.042;8.002;2022-12-18T04:25:50;50.67;;;36.63;;
20423;SDS011;10371;49.042;8.002;2022-12-18T04:26:50;51.83;;;37.10;;
20423;SDS011;10371;49.042;8.002;2022-12-18T04:27:50;49.53;;;37.03;;
20423;SDS011;10371;49.042;8.002;2022-12-18T04:28:51;51.50;;;35.57;;
20423;SDS011;10371;49.042;8.002;2022-12-18T04:29:51;46.63;;;34.53;;
20423;SDS011;10371;49.042;8.002;2022-12-18T04:30:51;54.63;;;36.83;;
20423;SDS011;10371;49.042;8.002;2022-12-18T04:31:52;50.33;;;36.27;;
20423;SDS011;10371;49.042;8.002;2022-12-18T04:32:52;49.83;;;36.30;;
20423;SDS011;10371;49.042;8.002;2022-12-18T04:33:52;45.47;;;35.00;;
20423;SDS011;10371;49.042;8.002;2022-12-18T04:34:52;48.67;;;35.37;;
20423;SDS011;10371;49.042;8.002;2022-12-18T04:35:53;46.47;;;34.10;;
20423;SDS011;10371;49.042;8.002;2022-12-18T04:36:53;50.87;;;36.37;;
20423;SDS011;10371;49.042;8.002;2022-12-18T04:37:53;50.47;;;35.90;;
20423;SDS011;10371;49.042;8.002;2022-12-18T04:38:53;48.53;;;35.60;;
20423;SDS011;10371;49.042;8.002;2022-12-18T04:39:54;46.50;;;34.13;;
20423;SDS011;10371;49.042;8.002;2022-12-18T04:40:54;50.63;;;34.63;;
20423;SDS011;10371;49.042;8.002;2022-12-18T04:41:54;49.23;;;35.77;;
20423;SDS011;10371;49.042;8.002;2022-12-18T04:42:55;51.97;;;37.00;;
20423;SDS011;10371;49.042;8.002;2022-12-18T04:43:55;50.53;;;35.20;;
20423;SDS011;10371;49.042;8.002;2022-12-18T04:44:55;47.73;;;34.50;;
20423;SDS011;10371;49.042;8.002;2022-12-18T04:46:01;53.50;;;36.27;;
20423;SDS011;10371;49.042;8.002;2022-12-18T04:47:02;51.72;;;36.35;;
20423;SDS011;10371;49.042;8.002;2022-12-18T04:48:03;49.47;;;36.13;;
20423;SDS011;10371;49.042;8.002;2022-12-18T04:49:04;49.40;;;35.07;;
20423;SDS011;10371;49.042;8.002;2022-12-18T04:50:04;48.33;;;35.40;;
20423;SDS011;10371;49.042;8.002;2022-12-18T04:51:05;45.47;;;34.27;;
20423;SDS011;10371;49.042;8.002;2022-12-18T04:52:07;51.05;;;36.55;;
20423;SDS011;10371;49.042;8.002;2022-12-18T04:53:07;53.10;;;36.53;;
20423;SDS011;10371;49.042;8.002;2022-12-18T04:54:07;48.80;;;34.63;;
20423;SDS011;10371;49.042;8.002;2022-12-18T04:55:08;53.10;;;36.63;;
20423;SDS011;10371;49.042;8.002;2022-12-18T04:56:09;50.17;;;35.37;;
20423;SDS011;10371;49.042;8.002;2022-12-18T04:57:11;50.38;;;35.10;;
20423;SDS011;10371;49.042;8.002;2022-12-18T04:58:11;51.03;;;34.87;;
20423;SDS011;10371;49.042;8.002;2022-12-18T04:59:11;51.20;;;36.43;;
20423;SDS011;10371;49.042;8.002;2022-12-18T05:00:12;49.93;;;35.13;;
20423;SDS011;10371;49.042;8.002;2022-12-18T05:01:13;51.37;;;35.53;;
20423;SDS011;10371;49.042;8.002;2022-12-18T05:02:14;50.50;;;35.58;;
20423;SDS011;10371;49.042;8.002;2022-12-18T05:03:14;49.80;;;34.80;;
20423;SDS011;10371;49.042;8.002;2022-12-18T05:04:15;50.77;;;34.80;;
20423;SDS011;10371;49.042;8.002;2022-12-18T05:05:15;50.73;;;36.27;;
20423;SDS011;10371;49.042;8.002;2022-12-18T05:06:15;48.53;;;34.27;;
20423;SDS011;10371;49.042;8.002;2022-12-18T05:07:16;48.97;;;35.17;;
20423;SDS011;10371;49.042;8.002;2022-12-18T05:08:16;47.43;;;34.27;;
20423;SDS011;10371;49.042;8.002;2022-12-18T05:09:17;49.03;;;35.03;;
20423;SDS011;10371;49.042;8.002;2022-12-18T05:10:17;47.97;;;33.73;;
20423;SDS011;10371;49.042;8.002;2022-12-18T05:11:17;48.83;;;34.80;;
20423;SDS011;10371;49.042;8.002;2022-12-18T05:12:18;49.07;;;35.03;;
20423;SDS011;10371;49.042;8.002;2022-12-18T05:13:18;50.77;;;36.87;;
20423;SDS011;10371;49.042;8.002;2022-12-18T05:14:18;47.47;;;35.53;;
20423;SDS011;10371;49.042;8.002;2022-12-18T05:15:19;49.33;;;34.83;;
20423;SDS011;10371;49.042;8.002;2022-12-18T05:16:19;51.47;;;35.73;;
20423;SDS011;10371;49.042;8.002;2022-12-18T05:17:19;49.57;;;36.43;;
20423;SDS011;10371;49.042;8.002;2022-12-18T05:18:20;49.13;;;36.57;;
20423;SDS011;10371;49.042;8.002;2022-12-18T05:19:20;51.90;;;35.50;;
20423;SDS011;10371;49.042;8.002;2022-12-18T05:20:20;45.43;;;35.27;;
20423;SDS011;10371;49.042;8.002;2022-12-18T05:21:21;51.00;;;36.30;;
20423;SDS011;10371;49.042;8.002;2022-12-18T05:22:21;50.43;;;35.63;;
20423;SDS011;10371;49.042;8.002;2022-12-18T05:23:22;48.13;;;35.00;;
20423;SDS011;10371;49.042;8.002;2022-12-18T05:24:23;49.90;;;35.72;;
20423;SDS011;10371;49.042;8.002;2022-12-18T05:25:23;50.53;;;35.83;;
20423;SDS011;10371;49.042;8.002;2022-12-18T05:26:24;49.20;;;35.60;;
20423;SDS011;10371;49.042;8.002;2022-12-18T05:27:24;50.53;;;36.07;;
20423;SDS011;10371;49.042;8.002;2022-12-18T05:28:25;48.57;;;35.77;;
20423;SDS011;10371;49.042;8.002;2022-12-18T05:29:27;49.22;;;36.20;;
20423;SDS011;10371;49.042;8.002;2022-12-18T05:30:27;47.53;;;35.13;;
20423;SDS011;10371;49.042;8.002;2022-12-18T05:31:28;50.73;;;35.27;;
20423;SDS011;10371;49.042;8.002;2022-12-18T05:32:28;50.00;;;35.60;;
20423;SDS011;10371;49.042;8.002;2022-12-18T05:33:30;50.27;;;34.93;;
20423;SDS011;10371;49.042;8.002;2022-12-18T05:34:31;50.72;;;35.63;;
20423;SDS011;10371;49.042;8.002;2022-12-18T05:35:33;50.00;;;35.35;;
20423;SDS011;10371;49.042;8.002;2022-12-18T05:36:33;48.83;;;34.83;;
20423;SDS011;10371;49.042;8.002;2022-12-18T05:37:34;49.70;;;35.03;;
20423;SDS011;10371;49.042;8.002;2022-12-18T05:38:35;51.50;;;36.53;;
20423;SDS011;10371;49.042;8.002;2022-12-18T05:39:37;49.25;;;35.00;;
20423;SDS011;10371;49.042;8.002;2022-12-18T05:40:40;47.23;;;36.10;;
20423;SDS011;10371;49.042;8.002;2022-12-18T05:41:42;49.17;;;35.80;;
20423;SDS011;10371;49.042;8.002;2022-12-18T05:42:42;49.67;;;35.73;;
20423;SDS011;10371;49.042;8.002;2022-12-18T05:43:42;49.90;;;36.23;;
20423;SDS011;10371;49.042;8.002;2022-12-18T05:44:43;50.87;;;36.50;;
20423;SDS011;10371;49.042;8.002;2022-12-18T05:45:43;50.67;;;37.10;;
20423;SDS011;10371;49.042;8.002;2022-12-18T05:46:44;51.00;;;37.27;;
20423;SDS011;10371;49.042;8.002;2022-12-18T05:47:44;52.23;;;37.10;;
20423;SDS011;10371;49.042;8.002;2022-12-18T05:48:44;54.50;;;36.50;;
20423;SDS011;10371;49.042;8.002;2022-12-18T05:49:45;50.17;;;36.17;;
20423;SDS011;10371;49.042;8.002;2022-12-18T05:50:46;48.47;;;34.53;;
20423;SDS011;10371;49.042;8.002;2022-12-18T05:51:47;50.42;;;35.50;;
20423;SDS011;10371;49.042;8.002;2022-12-18T05:52:48;50.20;;;35.47;;
20423;SDS011;10371;49.042;8.002;2022-12-18T05:53:48;47.43;;;34.90;;
20423;SDS011;10371;49.042;8.002;2022-12-18T05:54:48;48.63;;;36.53;;
20423;SDS011;10371;49.042;8.002;2022-12-18T05:55:49;50.90;;;36.47;;
20423;SDS011;10371;49.042;8.002;2022-12-18T05:56:49;50.30;;;37.00;;
20423;SDS011;10371;49.042;8.002;2022-12-18T05:57:49;45.90;;;34.63;;
20423;SDS011;10371;49.042;8.002;2022-12-18T05:58:53;51.17;;;35.80;;
20423;SDS011;10371;49.042;8.002;2022-12-18T05:59:54;49.15;;;35.58;;
20423;SDS011;10371;49.042;8.002;2022-12-18T06:00:54;49.87;;;35.70;;
20423;SDS011;10371;49.042;8.002;2022-12-18T06:01:55;50.73;;;36.10;;
20423;SDS011;10371;49.042;8.002;2022-12-18T06:02:55;47.13;;;35.53;;
20423;SDS011;10371;49.042;8.002;2022-12-18T06:03:55;47.70;;;35.30;;
20423;SDS011;10371;49.042;8.002;2022-12-18T06:04:56;49.43;;;36.83;;
20423;SDS011;10371;49.042;8.002;2022-12-18T06:05:56;47.70;;;35.73;;
20423;SDS011;10371;49.042;8.002;2022-12-18T06:06:56;47.40;;;35.80;;
20423;SDS011;10371;49.042;8.002;2022-12-18T06:07:57;50.87;;;36.10;;
20423;SDS011;10371;49.042;8.002;2022-12-18T06:08:57;46.20;;;35.67;;
20423;SDS011;10371;49.042;8.002;2022-12-18T06:09:57;47.53;;;35.87;;
20423;SDS011;10371;49.042;8.002;2022-12-18T06:10:57;45.17;;;34.83;;
20423;SDS011;10371;49.042;8.002;2022-12-18T06:11:58;47.60;;;35.60;;
20423;SDS011;10371;49.042;8.002;2022-12-18T06:12:58;47.50;;;35.17;;
20423;SDS011;10371;49.042;8.002;2022-12-18T06:13:59;44.07;;;33.80;;
20423;SDS011;10371;49.042;8.002;2022-12-18T06:14:59;46.10;;;35.30;;
20423;SDS011;10371;49.042;8.002;2022-12-18T06:16:06;46.85;;;35.13;;
20423;SDS011;10371;49.042;8.002;2022-12-18T06:17:07;46.13;;;34.40;;
20423;SDS011;10371;49.042;8.002;2022-12-18T06:18:08;45.40;;;36.40;;
20423;SDS011;10371;49.042;8.002;2022-12-18T06:19:12;47.50;;;35.37;;
20423;SDS011;10371;49.042;8.002;2022-12-18T06:20:14;45.95;;;34.35;;
20423;SDS011;10371;49.042;8.002;2022-12-18T06:21:15;46.50;;;35.20;;
20423;SDS011;10371;49.042;8.002;2022-12-18T06:22:15;45.83;;;34.23;;
20423;SDS011;10371;49.042;8.002;2022-12-18T06:23:16;44.95;;;35.08;;
20423;SDS011;10371;49.042;8.002;2022-12-18T06:24:17;46.07;;;34.67;;
20423;SDS011;10371;49.042;8.002;2022-12-18T06:25:17;44.87;;;34.03;;
20423;SDS011;10371;49.042;8.002;2022-12-18T06:26:17;46.13;;;33.97;;
20423;SDS011;10371;49.042;8.002;2022-12-18T06:27:18;45.37;;;34.67;;
20423;SDS011;10371;49.042;8.002;2022-12-18T06:28:18;43.47;;;33.50;;
20423;SDS011;10371;49.042;8.002;2022-12-18T06:29:19;44.30;;;34.63;;